createdAt,value
2022-11-29T00:01:43.643Z,13.10
2022-11-29T00:04:40.708Z,14.20
2022-11-29T00:07:37.708Z,11.95
2022-11-29T00:10:38.163Z,11.88
2022-11-29T00:13:35.666Z,13.30
2022-11-29T00:16:32.875Z,13.23
2022-11-29T00:19:31.698Z,12.77
2022-11-29T00:22:29.331Z,11.48
2022-11-29T00:25:27.691Z,12.77
2022-11-29T00:28:24.524Z,12.82
2022-11-29T00:31:32.652Z,11.82
2022-11-29T00:34:29.551Z,12.25
2022-11-29T00:37:26.513Z,11.73
2022-11-29T00:40:23.363Z,12.45
2022-11-29T00:43:20.202Z,12.80
2022-11-29T00:46:17.297Z,12.63
2022-11-29T00:49:14.479Z,12.65
2022-11-29T00:52:11.309Z,12.10
2022-11-29T00:55:08.743Z,12.18
2022-11-29T00:58:06.242Z,11.85
2022-11-29T01:01:04.421Z,11.75
2022-11-29T01:04:02.320Z,12.85
2022-11-29T01:06:59.599Z,12.20
2022-11-29T01:09:56.443Z,11.77
2022-11-29T01:12:53.539Z,13.48
2022-11-29T01:15:57.617Z,11.38
2022-11-29T01:18:54.528Z,12.80
2022-11-29T01:21:51.343Z,12.13
2022-11-29T01:24:48.385Z,11.02
2022-11-29T01:27:45.648Z,11.23
2022-11-29T01:30:42.533Z,12.32
2022-11-29T01:33:40.052Z,12.45
2022-11-29T01:36:36.964Z,13.13
2022-11-29T01:39:33.817Z,12.77
2022-11-29T01:42:30.651Z,12.27
2022-11-29T01:45:27.536Z,11.48
2022-11-29T01:48:30.318Z,10.60
2022-11-29T01:51:29.519Z,11.43
2022-11-29T01:54:29.043Z,10.23
2022-11-29T01:57:27.093Z,12.43
2022-11-29T02:00:23.968Z,10.07
2022-11-29T02:03:20.821Z,10.55
2022-11-29T02:06:18.261Z,11.00
2022-11-29T02:09:24.261Z,10.05
2022-11-29T02:12:38.564Z,10.88
2022-11-29T02:15:50.384Z,10.32
2022-11-29T02:19:22.035Z,11.57
2022-11-29T02:22:53.350Z,10.63
2022-11-29T02:26:15.626Z,9.90
2022-11-29T02:29:45.440Z,10.55
2022-11-29T02:33:09.817Z,11.57
2022-11-29T02:36:43.006Z,10.77
2022-11-29T02:40:01.784Z,10.35
2022-11-29T02:43:40.752Z,11.38
2022-11-29T02:46:56.730Z,10.40
2022-11-29T02:50:18.665Z,12.30
2022-11-29T02:53:40.943Z,10.95
2022-11-29T02:56:46.663Z,11.65
2022-11-29T03:00:10.852Z,11.60
2022-11-29T03:03:26.847Z,12.05
2022-11-29T03:07:02.254Z,12.65
2022-11-29T03:10:28.411Z,12.40
2022-11-29T03:14:06.269Z,11.65
2022-11-29T03:17:42.048Z,12.10
2022-11-29T03:21:24.484Z,12.27
2022-11-29T03:24:35.616Z,12.13
2022-11-29T03:28:04.152Z,12.13
2022-11-29T03:31:14.231Z,12.90
2022-11-29T03:35:08.013Z,12.05
2022-11-29T03:38:42.743Z,13.18
2022-11-29T03:41:58.516Z,13.40
2022-11-29T03:45:13.862Z,11.70
2022-11-29T03:48:26.894Z,13.10
2022-11-29T03:51:38.051Z,12.23
2022-11-29T03:54:46.665Z,12.98
2022-11-29T03:58:14.835Z,12.83
2022-11-29T04:01:49.224Z,13.07
2022-11-29T04:05:32.835Z,13.10
2022-11-29T04:09:25.747Z,12.98
2022-11-29T04:12:41.006Z,12.38
2022-11-29T04:16:10.738Z,13.75
2022-11-29T04:20:04.301Z,11.65
2022-11-29T04:23:42.984Z,14.30
2022-11-29T04:27:04.979Z,13.82
2022-11-29T04:30:21.191Z,15.32
2022-11-29T04:33:58.880Z,13.63
2022-11-29T04:37:22.902Z,14.25
2022-11-29T04:40:26.951Z,12.57
2022-11-29T04:44:13.346Z,14.35
2022-11-29T04:47:46.368Z,14.30
2022-11-29T04:51:20.893Z,15.20
2022-11-29T04:54:52.596Z,14.00
2022-11-29T04:58:03.785Z,14.57
2022-11-29T05:01:50.486Z,13.25
2022-11-29T05:05:12.000Z,14.02
2022-11-29T05:08:53.953Z,14.23
2022-11-29T05:12:21.547Z,15.23
2022-11-29T05:15:40.144Z,14.25
2022-11-29T05:18:42.502Z,14.57
2022-11-29T05:22:03.925Z,15.57
2022-11-29T05:25:27.340Z,15.10
2022-11-29T05:28:43.895Z,15.43
2022-11-29T05:32:20.690Z,16.25
2022-11-29T05:35:29.408Z,16.00
2022-11-29T05:38:57.570Z,13.65
2022-11-29T05:42:37.475Z,16.80
2022-11-29T05:46:16.636Z,19.45
2022-11-29T05:49:50.448Z,17.20
2022-11-29T05:53:19.223Z,22.33
2022-11-29T05:56:32.511Z,44.00
2022-11-29T05:59:30.818Z,36.72
2022-11-29T06:02:27.627Z,33.58
2022-11-29T06:06:07.087Z,28.90
2022-11-29T06:09:37.804Z,26.98
2022-11-29T06:12:36.089Z,21.58
2022-11-29T06:15:51.320Z,17.40
2022-11-29T06:19:23.130Z,15.32
2022-11-29T06:22:58.134Z,15.77
2022-11-29T06:26:35.717Z,14.80
2022-11-29T06:30:10.852Z,16.42
2022-11-29T06:33:21.439Z,14.68
2022-11-29T06:36:59.086Z,17.65
2022-11-29T06:39:56.332Z,18.25
2022-11-29T06:42:53.161Z,21.63
2022-11-29T06:45:56.044Z,24.25
2022-11-29T06:49:22.187Z,38.13
2022-11-29T06:52:44.303Z,39.55
2022-11-29T06:55:59.417Z,72.38
2022-11-29T06:59:17.117Z,56.80
2022-11-29T07:02:20.000Z,79.78
2022-11-29T07:05:22.422Z,26.45
2022-11-29T07:08:24.687Z,23.48
2022-11-29T07:11:21.951Z,28.55
2022-11-29T07:14:19.095Z,19.75
2022-11-29T07:17:25.962Z,19.30
2022-11-29T07:21:03.928Z,19.75
2022-11-29T07:24:29.984Z,118.95
2022-11-29T07:28:12.876Z,41.08
2022-11-29T07:31:11.719Z,21.80
2022-11-29T07:34:44.271Z,19.00
2022-11-29T07:38:38.264Z,19.00
2022-11-29T07:42:08.186Z,18.65
2022-11-29T07:45:28.454Z,18.80
2022-11-29T07:48:26.849Z,21.05
2022-11-29T07:51:23.750Z,21.98
2022-11-29T07:54:22.256Z,23.60
2022-11-29T07:57:19.123Z,32.00
2022-11-29T08:00:18.382Z,31.50
2022-11-29T08:03:15.284Z,36.67
2022-11-29T08:06:12.138Z,36.17
2022-11-29T08:09:09.091Z,36.95
2022-11-29T08:12:06.183Z,41.47
2022-11-29T08:15:03.385Z,40.88
2022-11-29T08:18:01.313Z,42.78
2022-11-29T08:20:58.141Z,28.02
2022-11-29T08:23:55.016Z,28.77
2022-11-29T08:26:51.868Z,32.25
2022-11-29T08:29:48.692Z,29.08
2022-11-29T08:32:51.132Z,25.23
2022-11-29T08:35:48.329Z,25.70
2022-11-29T08:38:45.959Z,33.70
2022-11-29T08:41:42.943Z,39.92
2022-11-29T08:44:39.928Z,30.83
2022-11-29T08:47:38.255Z,33.58
2022-11-29T08:50:35.088Z,35.13
2022-11-29T08:53:41.666Z,27.80
2022-11-29T08:59:55.490Z,34.03
2022-11-29T09:02:52.326Z,27.80
2022-11-29T09:05:49.308Z,25.02
2022-11-29T09:08:46.205Z,27.67
2022-11-29T09:11:47.009Z,18.80
2022-11-29T09:14:46.349Z,17.75
2022-11-29T09:17:43.386Z,18.35
2022-11-29T09:20:44.133Z,19.42
2022-11-29T09:26:40.795Z,18.10
2022-11-29T09:29:37.859Z,16.90
2022-11-29T09:32:35.532Z,17.23
2022-11-29T09:35:34.610Z,17.55
2022-11-29T09:38:31.449Z,17.95
2022-11-29T09:42:11.895Z,17.90
2022-11-29T09:45:19.814Z,20.30
2022-11-29T09:48:55.821Z,17.52
2022-11-29T09:52:10.807Z,17.40
2022-11-29T09:55:23.702Z,23.40
2022-11-29T09:58:26.290Z,21.73
2022-11-29T10:01:38.141Z,19.98
2022-11-29T10:04:40.802Z,24.02
2022-11-29T10:07:56.812Z,28.55
2022-11-29T10:11:36.737Z,20.40
2022-11-29T10:15:00.269Z,19.20
2022-11-29T10:19:04.508Z,19.52
2022-11-29T10:22:10.284Z,30.42
2022-11-29T10:25:10.457Z,20.33
2022-11-29T10:28:26.372Z,21.25
2022-11-29T10:31:27.483Z,17.38
2022-11-29T10:34:26.619Z,17.40
2022-11-29T10:37:24.617Z,17.08
2022-11-29T10:40:32.334Z,18.40
2022-11-29T10:43:29.221Z,21.83
2022-11-29T10:46:32.497Z,16.88
2022-11-29T10:49:35.163Z,15.80
2022-11-29T10:52:33.728Z,18.58
2022-11-29T10:56:22.405Z,23.55
2022-11-29T10:59:31.037Z,16.73
2022-11-29T11:02:28.383Z,21.48
2022-11-29T11:05:27.068Z,21.25
2022-11-29T11:08:26.434Z,19.65
2022-11-29T11:11:33.182Z,18.60
2022-11-29T11:14:36.275Z,19.02
2022-11-29T11:17:33.767Z,18.40
2022-11-29T11:20:34.846Z,16.70
2022-11-29T11:23:38.661Z,20.08
2022-11-29T11:26:44.970Z,19.30
2022-11-29T11:29:44.972Z,23.27
2022-11-29T11:33:26.516Z,21.98
2022-11-29T11:36:27.349Z,19.63
2022-11-29T11:42:37.343Z,18.70
2022-11-29T11:45:38.562Z,20.65
2022-11-29T11:48:35.934Z,23.25
2022-11-29T11:51:33.937Z,18.33
2022-11-29T11:54:31.726Z,14.95
2022-11-29T11:57:30.071Z,17.15
2022-11-29T12:01:09.644Z,15.05
2022-11-29T12:04:22.752Z,13.77
2022-11-29T12:08:05.674Z,21.23
2022-11-29T12:10:53.766Z,27.10
2022-11-29T12:13:58.117Z,18.50
2022-11-29T12:17:22.507Z,16.67
2022-11-29T12:21:18.454Z,15.05
2022-11-29T12:24:40.347Z,14.18
2022-11-29T12:27:37.290Z,14.48
2022-11-29T12:30:34.754Z,16.80
2022-11-29T12:34:27.543Z,16.75
2022-11-29T12:37:42.357Z,22.45
2022-11-29T12:40:58.235Z,19.85
2022-11-29T12:44:22.296Z,19.23
2022-11-29T12:47:50.378Z,22.17
2022-11-29T12:51:09.184Z,27.40
2022-11-29T12:54:55.850Z,31.33
2022-11-29T12:58:07.391Z,18.75
2022-11-29T13:01:31.588Z,19.75
2022-11-29T13:04:59.765Z,18.63
2022-11-29T13:08:16.534Z,20.00
2022-11-29T13:11:37.583Z,19.15
2022-11-29T13:14:58.617Z,23.70
2022-11-29T13:18:22.732Z,25.80
2022-11-29T13:21:31.903Z,17.83
2022-11-29T13:24:42.938Z,15.68
2022-11-29T13:28:03.457Z,16.05
2022-11-29T13:31:12.586Z,15.77
2022-11-29T13:34:46.378Z,16.92
2022-11-29T13:38:18.544Z,16.13
2022-11-29T13:42:10.762Z,14.57
2022-11-29T13:45:39.315Z,14.13
2022-11-29T13:48:50.154Z,14.95
2022-11-29T13:54:44.228Z,12.55
2022-11-29T13:58:20.944Z,13.68
2022-11-29T14:01:17.997Z,12.30
2022-11-29T14:04:39.409Z,13.10
2022-11-29T14:08:48.067Z,11.98
2022-11-29T14:12:24.498Z,11.63
2022-11-29T14:15:31.748Z,12.23
2022-11-29T14:18:37.085Z,12.55
2022-11-29T14:22:02.919Z,12.52
2022-11-29T14:25:08.324Z,12.70
2022-11-29T14:28:18.538Z,11.10
2022-11-29T14:31:50.129Z,13.32
2022-11-29T14:35:04.805Z,11.68
2022-11-29T14:38:33.905Z,11.68
2022-11-29T14:42:19.873Z,12.07
2022-11-29T14:45:33.442Z,11.82
2022-11-29T14:48:32.965Z,11.70
2022-11-29T14:51:34.253Z,12.68
2022-11-29T14:54:32.519Z,11.35
2022-11-29T14:57:47.177Z,11.63
2022-11-29T15:01:01.777Z,11.73
2022-11-29T15:04:05.506Z,11.10
2022-11-29T15:07:04.374Z,11.70
2022-11-29T15:10:04.997Z,11.02
2022-11-29T15:13:03.950Z,12.38
2022-11-29T15:16:49.687Z,11.52
2022-11-29T15:20:19.526Z,12.85
2022-11-29T15:23:21.429Z,13.90
2022-11-29T15:26:20.969Z,12.65
2022-11-29T15:29:21.589Z,13.65
2022-11-29T15:32:32.497Z,13.02
2022-11-29T15:35:30.173Z,14.15
2022-11-29T15:38:27.016Z,12.48
2022-11-29T15:41:28.966Z,13.00
2022-11-29T15:44:25.944Z,13.65
2022-11-29T15:47:26.643Z,12.57
2022-11-29T15:50:33.048Z,12.60
2022-11-29T15:53:44.050Z,12.55
2022-11-29T15:56:48.055Z,14.10
2022-11-29T16:00:00.119Z,14.43
2022-11-29T16:03:03.006Z,14.15
2022-11-29T16:06:22.741Z,13.77
2022-11-29T16:09:36.258Z,15.02
2022-11-29T16:12:33.254Z,15.40
2022-11-29T16:15:40.282Z,14.38
2022-11-29T16:18:40.989Z,15.23
2022-11-29T16:24:36.655Z,15.02
2022-11-29T16:27:35.318Z,15.48
2022-11-29T16:30:34.174Z,14.98
2022-11-29T16:33:31.673Z,15.32
2022-11-29T16:36:28.514Z,14.98
2022-11-29T16:39:26.122Z,14.30
2022-11-29T16:42:29.973Z,14.57
2022-11-29T16:45:38.518Z,13.05
2022-11-29T16:48:38.336Z,13.93
2022-11-29T16:51:45.778Z,14.32
2022-11-29T16:54:42.794Z,14.18
2022-11-29T16:57:40.250Z,13.98
2022-11-29T17:00:37.212Z,13.30
2022-11-29T17:03:34.487Z,13.70
2022-11-29T17:06:31.582Z,14.30
2022-11-29T17:09:31.665Z,13.40
2022-11-29T17:12:28.583Z,15.05
2022-11-29T17:15:25.483Z,14.43
2022-11-29T17:18:22.381Z,14.35
2022-11-29T17:21:27.866Z,14.43
2022-11-29T17:24:25.430Z,14.77
2022-11-29T17:27:22.258Z,15.23
2022-11-29T17:30:19.170Z,15.95
2022-11-29T17:33:16.109Z,15.80
2022-11-29T17:36:16.657Z,17.38
2022-11-29T17:39:15.605Z,16.17
2022-11-29T17:42:12.583Z,16.42
2022-11-29T17:45:10.040Z,16.13
2022-11-29T17:48:07.015Z,16.45
2022-11-29T17:51:13.536Z,16.58
2022-11-29T17:54:22.645Z,14.73
2022-11-29T17:57:19.833Z,17.23
2022-11-29T18:00:17.935Z,14.80
2022-11-29T18:03:14.753Z,14.18
2022-11-29T18:06:20.313Z,14.57
2022-11-29T18:09:19.352Z,14.80
2022-11-29T18:12:16.399Z,14.70
2022-11-29T18:15:13.239Z,14.63
2022-11-29T18:18:10.687Z,14.18
2022-11-29T18:21:09.985Z,13.63
2022-11-29T18:24:08.042Z,14.50
2022-11-29T18:27:04.914Z,16.13
2022-11-29T18:30:01.734Z,14.70
2022-11-29T18:32:59.719Z,14.98
2022-11-29T18:36:05.238Z,14.48
2022-11-29T18:39:09.634Z,14.07
2022-11-29T18:42:06.456Z,13.75
2022-11-29T18:45:03.540Z,15.95
2022-11-29T18:48:00.381Z,15.75
2022-11-29T18:51:06.212Z,15.20
2022-11-29T18:54:03.696Z,14.05
2022-11-29T18:57:00.598Z,15.45
2022-11-29T18:59:57.470Z,14.50
2022-11-29T19:02:54.466Z,13.25
2022-11-29T19:05:53.948Z,12.88
2022-11-29T19:08:52.726Z,13.88
2022-11-29T19:11:50.668Z,14.10
2022-11-29T19:14:50.057Z,14.40
2022-11-29T19:17:47.122Z,13.95
2022-11-29T19:20:43.967Z,12.93
2022-11-29T19:23:42.681Z,12.60
2022-11-29T19:26:40.278Z,13.57
2022-11-29T19:29:39.772Z,16.80
2022-11-29T19:32:36.794Z,17.45
2022-11-29T19:35:34.820Z,15.27
2022-11-29T19:38:31.766Z,13.88
2022-11-29T19:41:34.948Z,18.70
2022-11-29T19:44:48.259Z,25.02
2022-11-29T19:47:49.420Z,18.77
2022-11-29T19:50:46.266Z,18.73
2022-11-29T19:53:43.393Z,16.70
2022-11-29T19:56:40.402Z,15.70
2022-11-29T19:59:37.262Z,17.52
2022-11-29T20:02:34.188Z,20.50
2022-11-29T20:05:31.070Z,18.88
2022-11-29T20:08:28.773Z,18.58
2022-11-29T20:11:26.433Z,17.88
2022-11-29T20:14:23.327Z,17.80
2022-11-29T20:17:20.156Z,22.15
2022-11-29T20:20:17.140Z,23.42
2022-11-29T20:23:14.015Z,17.08
2022-11-29T20:26:20.187Z,19.38
2022-11-29T20:29:17.718Z,18.52
2022-11-29T20:32:14.691Z,15.00
2022-11-29T20:35:12.287Z,14.70
2022-11-29T20:38:37.406Z,13.77
2022-11-29T20:41:53.201Z,13.20
2022-11-29T20:44:57.258Z,13.45
2022-11-29T20:48:11.155Z,14.63
2022-11-29T20:51:10.348Z,15.60
2022-11-29T20:54:09.563Z,14.60
2022-11-29T20:57:06.377Z,15.55
2022-11-29T21:00:03.688Z,17.00
2022-11-29T21:03:00.649Z,18.35
2022-11-29T21:06:00.858Z,16.58
2022-11-29T21:08:57.693Z,17.30
2022-11-29T21:11:54.915Z,15.73
2022-11-29T21:14:52.354Z,15.32
2022-11-29T21:17:49.805Z,16.48
2022-11-29T21:21:11.799Z,19.50
2022-11-29T21:24:36.015Z,21.10
2022-11-29T21:27:34.810Z,20.27
2022-11-29T21:30:31.960Z,21.38
2022-11-29T21:33:29.875Z,21.05
2022-11-29T21:36:27.013Z,21.75
2022-11-29T21:39:32.555Z,20.20
2022-11-29T21:42:29.386Z,18.58
2022-11-29T21:45:26.240Z,18.55
2022-11-29T21:48:35.310Z,18.80
2022-11-29T21:51:32.146Z,17.60
2022-11-29T21:54:29.574Z,18.23
2022-11-29T21:57:26.426Z,18.48
2022-11-29T22:00:23.378Z,19.52
2022-11-29T22:03:20.750Z,20.98
2022-11-29T22:06:20.325Z,20.20
2022-11-29T22:09:17.207Z,16.13
2022-11-29T22:12:32.928Z,16.35
2022-11-29T22:15:32.595Z,17.75
2022-11-29T22:18:29.466Z,17.52
2022-11-29T22:21:26.310Z,18.00
2022-11-29T22:24:26.487Z,17.67
2022-11-29T22:27:23.337Z,17.58
2022-11-29T22:30:20.375Z,17.50
2022-11-29T22:33:17.221Z,18.98
2022-11-29T22:36:14.070Z,17.67
2022-11-29T22:39:11.043Z,17.05
2022-11-29T22:42:07.862Z,14.68
2022-11-29T22:45:05.079Z,16.52
2022-11-29T22:48:02.024Z,16.88
2022-11-29T22:51:12.627Z,17.83
2022-11-29T22:54:11.798Z,17.10
2022-11-29T22:57:08.727Z,17.02
2022-11-29T23:00:06.708Z,17.77
2022-11-29T23:03:03.552Z,18.75
2022-11-29T23:06:06.913Z,18.52
2022-11-29T23:09:15.076Z,20.25
2022-11-29T23:12:11.911Z,18.50
2022-11-29T23:15:09.218Z,20.33
2022-11-29T23:18:06.114Z,23.58
2022-11-29T23:21:10.358Z,22.75
2022-11-29T23:24:07.785Z,21.33
2022-11-29T23:27:04.914Z,19.27
2022-11-29T23:30:01.787Z,19.00
2022-11-29T23:32:58.621Z,18.15
2022-11-29T23:36:05.157Z,20.35
2022-11-29T23:39:02.024Z,18.38
2022-11-29T23:41:58.863Z,17.38
2022-11-29T23:44:55.720Z,17.55
2022-11-29T23:47:52.568Z,17.08
2022-11-29T23:50:49.482Z,18.48
2022-11-29T23:53:51.267Z,19.33
2022-11-29T23:56:48.179Z,18.27
2022-11-29T23:59:45.001Z,16.80
